sensor_id;sensor_type;location;lat;lon;timestamp;P1;durP1;ratioP1;P2;durP2;ratioP2
27684;SDS011;46113;50.130;8.526;2024-01-30T00:02:25;3.45;;;2.10;;
27684;SDS011;46113;50.130;8.526;2024-01-30T00:04:52;5.43;;;2.13;;
27684;SDS011;46113;50.130;8.526;2024-01-30T00:07:18;2.53;;;2.20;;
27684;SDS011;46113;50.130;8.526;2024-01-30T00:09:49;4.28;;;2.22;;
27684;SDS011;46113;50.130;8.526;2024-01-30T00:12:15;3.47;;;2.35;;
27684;SDS011;46113;50.130;8.526;2024-01-30T00:14:42;2.35;;;1.60;;
27684;SDS011;46113;50.130;8.526;2024-01-30T00:17:12;3.08;;;1.88;;
27684;SDS011;46113;50.130;8.526;2024-01-30T00:19:39;3.78;;;2.45;;
27684;SDS011;46113;50.130;8.526;2024-01-30T00:22:05;3.38;;;2.25;;
27684;SDS011;46113;50.130;8.526;2024-01-30T00:24:33;5.60;;;2.72;;
27684;SDS011;46113;50.130;8.526;2024-01-30T00:26:59;4.53;;;2.63;;
27684;SDS011;46113;50.130;8.526;2024-01-30T00:29:26;5.20;;;3.50;;
27684;SDS011;46113;50.130;8.526;2024-01-30T00:31:56;4.47;;;3.40;;
27684;SDS011;46113;50.130;8.526;2024-01-30T00:34:23;4.28;;;3.42;;
27684;SDS011;46113;50.130;8.526;2024-01-30T00:36:50;8.15;;;3.92;;
27684;SDS011;46113;50.130;8.526;2024-01-30T00:39:17;8.25;;;3.80;;
27684;SDS011;46113;50.130;8.526;2024-01-30T00:41:45;5.28;;;3.53;;
27684;SDS011;46113;50.130;8.526;2024-01-30T00:44:12;5.47;;;3.20;;
27684;SDS011;46113;50.130;8.526;2024-01-30T00:46:39;3.50;;;2.58;;
27684;SDS011;46113;50.130;8.526;2024-01-30T00:49:06;4.72;;;2.88;;
27684;SDS011;46113;50.130;8.526;2024-01-30T00:51:33;3.40;;;2.80;;
27684;SDS011;46113;50.130;8.526;2024-01-30T00:53:59;3.75;;;2.60;;
27684;SDS011;46113;50.130;8.526;2024-01-30T00:56:26;7.22;;;2.75;;
27684;SDS011;46113;50.130;8.526;2024-01-30T00:58:53;2.83;;;1.98;;
27684;SDS011;46113;50.130;8.526;2024-01-30T01:01:19;5.70;;;2.38;;
27684;SDS011;46113;50.130;8.526;2024-01-30T01:03:46;3.85;;;2.38;;
27684;SDS011;46113;50.130;8.526;2024-01-30T01:06:15;6.45;;;2.33;;
27684;SDS011;46113;50.130;8.526;2024-01-30T01:08:42;2.85;;;2.33;;
27684;SDS011;46113;50.130;8.526;2024-01-30T01:11:08;4.60;;;1.80;;
27684;SDS011;46113;50.130;8.526;2024-01-30T01:13:36;2.72;;;1.77;;
27684;SDS011;46113;50.130;8.526;2024-01-30T01:16:02;2.80;;;2.17;;
27684;SDS011;46113;50.130;8.526;2024-01-30T01:18:30;7.47;;;2.55;;
27684;SDS011;46113;50.130;8.526;2024-01-30T01:20:57;4.95;;;2.28;;
27684;SDS011;46113;50.130;8.526;2024-01-30T01:23:23;2.78;;;2.00;;
27684;SDS011;46113;50.130;8.526;2024-01-30T01:25:50;4.70;;;2.10;;
27684;SDS011;46113;50.130;8.526;2024-01-30T01:28:17;3.55;;;2.50;;
27684;SDS011;46113;50.130;8.526;2024-01-30T01:30:44;3.25;;;2.10;;
27684;SDS011;46113;50.130;8.526;2024-01-30T01:33:10;2.83;;;2.25;;
27684;SDS011;46113;50.130;8.526;2024-01-30T01:35:40;3.78;;;2.20;;
27684;SDS011;46113;50.130;8.526;2024-01-30T01:38:07;8.80;;;2.20;;
27684;SDS011;46113;50.130;8.526;2024-01-30T01:40:34;2.05;;;1.63;;
27684;SDS011;46113;50.130;8.526;2024-01-30T01:43:02;5.57;;;1.92;;
27684;SDS011;46113;50.130;8.526;2024-01-30T01:45:30;2.17;;;1.40;;
27684;SDS011;46113;50.130;8.526;2024-01-30T01:47:56;4.00;;;2.10;;
27684;SDS011;46113;50.130;8.526;2024-01-30T01:50:23;3.70;;;2.10;;
27684;SDS011;46113;50.130;8.526;2024-01-30T01:52:51;4.43;;;1.95;;
27684;SDS011;46113;50.130;8.526;2024-01-30T01:55:19;3.40;;;2.45;;
27684;SDS011;46113;50.130;8.526;2024-01-30T01:57:53;4.72;;;2.38;;
27684;SDS011;46113;50.130;8.526;2024-01-30T02:00:20;2.95;;;2.05;;
27684;SDS011;46113;50.130;8.526;2024-01-30T02:02:47;4.32;;;2.20;;
27684;SDS011;46113;50.130;8.526;2024-01-30T02:05:16;5.72;;;2.75;;
27684;SDS011;46113;50.130;8.526;2024-01-30T02:07:43;3.90;;;2.30;;
27684;SDS011;46113;50.130;8.526;2024-01-30T02:10:10;3.33;;;2.53;;
27684;SDS011;46113;50.130;8.526;2024-01-30T02:12:37;4.18;;;1.80;;
27684;SDS011;46113;50.130;8.526;2024-01-30T02:15:04;3.38;;;2.90;;
27684;SDS011;46113;50.130;8.526;2024-01-30T02:17:32;7.53;;;2.55;;
27684;SDS011;46113;50.130;8.526;2024-01-30T02:19:59;2.95;;;1.98;;
27684;SDS011;46113;50.130;8.526;2024-01-30T02:22:26;5.95;;;2.88;;
27684;SDS011;46113;50.130;8.526;2024-01-30T02:24:53;5.30;;;2.58;;
27684;SDS011;46113;50.130;8.526;2024-01-30T02:27:20;2.97;;;2.50;;
27684;SDS011;46113;50.130;8.526;2024-01-30T02:29:46;4.07;;;2.45;;
27684;SDS011;46113;50.130;8.526;2024-01-30T02:32:13;7.78;;;3.22;;
27684;SDS011;46113;50.130;8.526;2024-01-30T02:34:40;2.88;;;2.53;;
27684;SDS011;46113;50.130;8.526;2024-01-30T02:37:07;5.10;;;2.70;;
27684;SDS011;46113;50.130;8.526;2024-01-30T02:39:33;16.33;;;2.88;;
27684;SDS011;46113;50.130;8.526;2024-01-30T02:42:00;5.07;;;2.55;;
27684;SDS011;46113;50.130;8.526;2024-01-30T02:44:27;2.65;;;1.88;;
27684;SDS011;46113;50.130;8.526;2024-01-30T02:46:53;4.32;;;1.95;;
27684;SDS011;46113;50.130;8.526;2024-01-30T02:49:21;2.28;;;2.08;;
27684;SDS011;46113;50.130;8.526;2024-01-30T02:51:48;2.15;;;1.95;;
27684;SDS011;46113;50.130;8.526;2024-01-30T02:54:15;4.25;;;2.25;;
27684;SDS011;46113;50.130;8.526;2024-01-30T02:56:42;3.20;;;2.03;;
27684;SDS011;46113;50.130;8.526;2024-01-30T02:59:09;8.65;;;1.67;;
27684;SDS011;46113;50.130;8.526;2024-01-30T03:01:42;3.80;;;2.10;;
27684;SDS011;46113;50.130;8.526;2024-01-30T03:04:13;3.60;;;1.98;;
27684;SDS011;46113;50.130;8.526;2024-01-30T03:06:44;4.25;;;2.03;;
27684;SDS011;46113;50.130;8.526;2024-01-30T03:09:12;1.65;;;1.55;;
27684;SDS011;46113;50.130;8.526;2024-01-30T03:11:39;3.58;;;1.92;;
27684;SDS011;46113;50.130;8.526;2024-01-30T03:14:06;4.82;;;2.05;;
27684;SDS011;46113;50.130;8.526;2024-01-30T03:16:34;2.47;;;1.55;;
27684;SDS011;46113;50.130;8.526;2024-01-30T03:19:01;4.70;;;2.13;;
27684;SDS011;46113;50.130;8.526;2024-01-30T03:21:29;2.92;;;1.83;;
27684;SDS011;46113;50.130;8.526;2024-01-30T03:23:56;2.90;;;1.65;;
27684;SDS011;46113;50.130;8.526;2024-01-30T03:26:22;3.45;;;1.85;;
27684;SDS011;46113;50.130;8.526;2024-01-30T03:28:49;2.88;;;1.92;;
27684;SDS011;46113;50.130;8.526;2024-01-30T03:31:16;3.22;;;2.05;;
27684;SDS011;46113;50.130;8.526;2024-01-30T03:33:43;5.85;;;2.58;;
27684;SDS011;46113;50.130;8.526;2024-01-30T03:36:10;5.03;;;2.20;;
27684;SDS011;46113;50.130;8.526;2024-01-30T03:38:37;2.83;;;1.85;;
27684;SDS011;46113;50.130;8.526;2024-01-30T03:41:07;2.90;;;2.25;;
27684;SDS011;46113;50.130;8.526;2024-01-30T03:43:34;4.55;;;2.70;;
27684;SDS011;46113;50.130;8.526;2024-01-30T03:46:01;4.57;;;2.97;;
27684;SDS011;46113;50.130;8.526;2024-01-30T03:48:29;4.05;;;1.92;;
27684;SDS011;46113;50.130;8.526;2024-01-30T03:50:56;4.15;;;2.85;;
27684;SDS011;46113;50.130;8.526;2024-01-30T03:53:23;4.10;;;2.60;;
27684;SDS011;46113;50.130;8.526;2024-01-30T03:55:50;3.47;;;1.90;;
27684;SDS011;46113;50.130;8.526;2024-01-30T03:58:16;4.75;;;2.58;;
27684;SDS011;46113;50.130;8.526;2024-01-30T04:00:43;3.17;;;2.80;;
27684;SDS011;46113;50.130;8.526;2024-01-30T04:03:11;3.80;;;2.88;;
27684;SDS011;46113;50.130;8.526;2024-01-30T04:05:38;4.05;;;2.22;;
27684;SDS011;46113;50.130;8.526;2024-01-30T04:08:04;3.10;;;1.90;;
27684;SDS011;46113;50.130;8.526;2024-01-30T04:10:31;3.00;;;2.28;;
27684;SDS011;46113;50.130;8.526;2024-01-30T04:12:58;3.10;;;2.50;;
27684;SDS011;46113;50.130;8.526;2024-01-30T04:15:26;5.68;;;2.92;;
27684;SDS011;46113;50.130;8.526;2024-01-30T04:17:53;5.65;;;2.63;;
27684;SDS011;46113;50.130;8.526;2024-01-30T04:20:20;6.13;;;2.40;;
27684;SDS011;46113;50.130;8.526;2024-01-30T04:22:46;4.22;;;2.20;;
27684;SDS011;46113;50.130;8.526;2024-01-30T04:25:13;3.83;;;2.55;;
27684;SDS011;46113;50.130;8.526;2024-01-30T04:27:40;3.50;;;2.63;;
27684;SDS011;46113;50.130;8.526;2024-01-30T04:30:07;2.35;;;2.15;;
27684;SDS011;46113;50.130;8.526;2024-01-30T04:32:35;3.85;;;2.08;;
27684;SDS011;46113;50.130;8.526;2024-01-30T04:35:03;10.70;;;3.58;;
27684;SDS011;46113;50.130;8.526;2024-01-30T04:37:36;6.45;;;3.30;;
27684;SDS011;46113;50.130;8.526;2024-01-30T04:40:03;4.35;;;2.42;;
27684;SDS011;46113;50.130;8.526;2024-01-30T04:42:31;3.15;;;2.17;;
27684;SDS011;46113;50.130;8.526;2024-01-30T04:44:58;9.20;;;3.00;;
27684;SDS011;46113;50.130;8.526;2024-01-30T04:47:25;6.38;;;2.13;;
27684;SDS011;46113;50.130;8.526;2024-01-30T04:49:51;2.90;;;2.22;;
27684;SDS011;46113;50.130;8.526;2024-01-30T04:52:18;10.35;;;3.17;;
27684;SDS011;46113;50.130;8.526;2024-01-30T04:54:45;4.60;;;2.25;;
27684;SDS011;46113;50.130;8.526;2024-01-30T04:57:12;3.60;;;2.20;;
27684;SDS011;46113;50.130;8.526;2024-01-30T04:59:39;6.03;;;3.17;;
27684;SDS011;46113;50.130;8.526;2024-01-30T05:02:06;4.10;;;2.42;;
27684;SDS011;46113;50.130;8.526;2024-01-30T05:04:33;3.83;;;2.47;;
27684;SDS011;46113;50.130;8.526;2024-01-30T05:07:00;2.50;;;2.28;;
27684;SDS011;46113;50.130;8.526;2024-01-30T05:09:27;3.63;;;2.78;;
27684;SDS011;46113;50.130;8.526;2024-01-30T05:11:55;7.38;;;2.65;;
27684;SDS011;46113;50.130;8.526;2024-01-30T05:14:23;5.60;;;2.65;;
27684;SDS011;46113;50.130;8.526;2024-01-30T05:16:50;4.22;;;2.55;;
27684;SDS011;46113;50.130;8.526;2024-01-30T05:19:16;3.55;;;2.65;;
27684;SDS011;46113;50.130;8.526;2024-01-30T05:21:44;5.30;;;2.35;;
27684;SDS011;46113;50.130;8.526;2024-01-30T05:24:11;6.50;;;2.58;;
27684;SDS011;46113;50.130;8.526;2024-01-30T05:26:38;4.50;;;2.70;;
27684;SDS011;46113;50.130;8.526;2024-01-30T05:29:05;2.90;;;2.35;;
27684;SDS011;46113;50.130;8.526;2024-01-30T05:31:32;3.83;;;2.20;;
27684;SDS011;46113;50.130;8.526;2024-01-30T05:34:00;2.35;;;2.10;;
27684;SDS011;46113;50.130;8.526;2024-01-30T05:36:28;4.75;;;2.78;;
27684;SDS011;46113;50.130;8.526;2024-01-30T05:38:55;5.03;;;2.50;;
27684;SDS011;46113;50.130;8.526;2024-01-30T05:41:22;4.97;;;2.58;;
27684;SDS011;46113;50.130;8.526;2024-01-30T05:43:49;3.47;;;2.33;;
27684;SDS011;46113;50.130;8.526;2024-01-30T05:46:16;5.30;;;2.92;;
27684;SDS011;46113;50.130;8.526;2024-01-30T05:48:43;4.25;;;2.38;;
27684;SDS011;46113;50.130;8.526;2024-01-30T05:51:09;5.32;;;2.70;;
27684;SDS011;46113;50.130;8.526;2024-01-30T05:53:36;5.53;;;2.45;;
27684;SDS011;46113;50.130;8.526;2024-01-30T05:56:03;7.10;;;2.78;;
27684;SDS011;46113;50.130;8.526;2024-01-30T05:58:30;7.75;;;3.15;;
27684;SDS011;46113;50.130;8.526;2024-01-30T06:00:57;2.95;;;2.63;;
27684;SDS011;46113;50.130;8.526;2024-01-30T06:03:24;3.42;;;2.53;;
27684;SDS011;46113;50.130;8.526;2024-01-30T06:05:51;3.97;;;2.60;;
27684;SDS011;46113;50.130;8.526;2024-01-30T06:08:18;4.35;;;2.42;;
27684;SDS011;46113;50.130;8.526;2024-01-30T06:10:45;3.15;;;2.45;;
27684;SDS011;46113;50.130;8.526;2024-01-30T06:13:12;8.73;;;3.28;;
27684;SDS011;46113;50.130;8.526;2024-01-30T06:15:39;4.45;;;2.83;;
27684;SDS011;46113;50.130;8.526;2024-01-30T06:18:06;5.43;;;3.47;;
27684;SDS011;46113;50.130;8.526;2024-01-30T06:20:33;3.80;;;2.65;;
27684;SDS011;46113;50.130;8.526;2024-01-30T06:23:00;7.63;;;4.05;;
27684;SDS011;46113;50.130;8.526;2024-01-30T06:25:27;4.90;;;2.72;;
27684;SDS011;46113;50.130;8.526;2024-01-30T06:27:54;5.38;;;3.35;;
27684;SDS011;46113;50.130;8.526;2024-01-30T06:30:21;4.07;;;2.83;;
27684;SDS011;46113;50.130;8.526;2024-01-30T06:32:47;3.88;;;2.83;;
27684;SDS011;46113;50.130;8.526;2024-01-30T06:35:14;6.70;;;3.38;;
27684;SDS011;46113;50.130;8.526;2024-01-30T06:37:41;5.05;;;2.90;;
27684;SDS011;46113;50.130;8.526;2024-01-30T06:40:08;3.55;;;2.80;;
27684;SDS011;46113;50.130;8.526;2024-01-30T06:42:35;5.93;;;3.38;;
27684;SDS011;46113;50.130;8.526;2024-01-30T06:45:02;5.43;;;3.67;;
27684;SDS011;46113;50.130;8.526;2024-01-30T06:47:29;5.50;;;3.60;;
27684;SDS011;46113;50.130;8.526;2024-01-30T06:49:57;4.63;;;3.00;;
27684;SDS011;46113;50.130;8.526;2024-01-30T06:52:24;6.72;;;3.35;;
27684;SDS011;46113;50.130;8.526;2024-01-30T06:54:51;5.35;;;3.42;;
27684;SDS011;46113;50.130;8.526;2024-01-30T06:57:17;7.43;;;3.38;;
27684;SDS011;46113;50.130;8.526;2024-01-30T06:59:44;7.90;;;3.40;;
27684;SDS011;46113;50.130;8.526;2024-01-30T07:02:11;3.20;;;2.58;;
27684;SDS011;46113;50.130;8.526;2024-01-30T07:04:38;3.67;;;2.65;;
27684;SDS011;46113;50.130;8.526;2024-01-30T07:07:11;3.95;;;2.35;;
27684;SDS011;46113;50.130;8.526;2024-01-30T07:09:40;4.43;;;2.80;;
27684;SDS011;46113;50.130;8.526;2024-01-30T07:12:07;5.35;;;3.33;;
27684;SDS011;46113;50.130;8.526;2024-01-30T07:14:34;9.48;;;4.35;;
27684;SDS011;46113;50.130;8.526;2024-01-30T07:17:01;6.57;;;4.40;;
27684;SDS011;46113;50.130;8.526;2024-01-30T07:19:28;5.68;;;3.58;;
27684;SDS011;46113;50.130;8.526;2024-01-30T07:21:56;8.43;;;3.70;;
27684;SDS011;46113;50.130;8.526;2024-01-30T07:24:22;11.57;;;4.13;;
27684;SDS011;46113;50.130;8.526;2024-01-30T07:26:49;5.25;;;3.70;;
27684;SDS011;46113;50.130;8.526;2024-01-30T07:29:16;6.13;;;4.10;;
27684;SDS011;46113;50.130;8.526;2024-01-30T07:31:42;9.77;;;4.45;;
27684;SDS011;46113;50.130;8.526;2024-01-30T07:34:09;6.97;;;5.45;;
27684;SDS011;46113;50.130;8.526;2024-01-30T07:36:37;5.72;;;4.75;;
27684;SDS011;46113;50.130;8.526;2024-01-30T07:39:05;6.50;;;4.38;;
27684;SDS011;46113;50.130;8.526;2024-01-30T07:41:32;6.97;;;4.18;;
27684;SDS011;46113;50.130;8.526;2024-01-30T07:43:59;6.60;;;5.43;;
27684;SDS011;46113;50.130;8.526;2024-01-30T07:46:26;10.20;;;6.22;;
27684;SDS011;46113;50.130;8.526;2024-01-30T07:48:53;11.85;;;5.85;;
27684;SDS011;46113;50.130;8.526;2024-01-30T07:51:21;9.40;;;5.85;;
27684;SDS011;46113;50.130;8.526;2024-01-30T07:53:48;8.02;;;5.53;;
27684;SDS011;46113;50.130;8.526;2024-01-30T07:56:14;9.45;;;6.57;;
27684;SDS011;46113;50.130;8.526;2024-01-30T07:58:42;9.60;;;6.00;;
27684;SDS011;46113;50.130;8.526;2024-01-30T08:01:09;10.40;;;5.95;;
27684;SDS011;46113;50.130;8.526;2024-01-30T08:03:36;11.48;;;6.28;;
27684;SDS011;46113;50.130;8.526;2024-01-30T08:06:03;9.07;;;6.63;;
27684;SDS011;46113;50.130;8.526;2024-01-30T08:08:30;10.38;;;6.30;;
27684;SDS011;46113;50.130;8.526;2024-01-30T08:10:57;10.27;;;7.13;;
27684;SDS011;46113;50.130;8.526;2024-01-30T08:13:24;11.00;;;6.88;;
27684;SDS011;46113;50.130;8.526;2024-01-30T08:15:51;10.43;;;7.55;;
27684;SDS011;46113;50.130;8.526;2024-01-30T08:18:18;12.82;;;6.93;;
27684;SDS011;46113;50.130;8.526;2024-01-30T08:20:44;10.40;;;7.90;;
27684;SDS011;46113;50.130;8.526;2024-01-30T08:23:11;11.48;;;8.10;;
27684;SDS011;46113;50.130;8.526;2024-01-30T08:25:38;9.43;;;6.97;;
27684;SDS011;46113;50.130;8.526;2024-01-30T08:28:05;9.98;;;6.97;;
27684;SDS011;46113;50.130;8.526;2024-01-30T08:30:32;12.43;;;7.88;;
27684;SDS011;46113;50.130;8.526;2024-01-30T08:32:58;14.73;;;8.27;;
27684;SDS011;46113;50.130;8.526;2024-01-30T08:35:25;8.95;;;6.00;;
27684;SDS011;46113;50.130;8.526;2024-01-30T08:37:52;12.68;;;7.40;;
27684;SDS011;46113;50.130;8.526;2024-01-30T08:40:20;9.60;;;6.53;;
27684;SDS011;46113;50.130;8.526;2024-01-30T08:42:47;8.88;;;6.30;;
27684;SDS011;46113;50.130;8.526;2024-01-30T08:45:14;8.52;;;5.85;;
27684;SDS011;46113;50.130;8.526;2024-01-30T08:47:41;10.52;;;5.93;;
27684;SDS011;46113;50.130;8.526;2024-01-30T08:50:08;11.18;;;5.45;;
27684;SDS011;46113;50.130;8.526;2024-01-30T08:52:35;6.40;;;4.88;;
27684;SDS011;46113;50.130;8.526;2024-01-30T08:55:02;7.53;;;4.95;;
27684;SDS011;46113;50.130;8.526;2024-01-30T08:57:29;8.25;;;5.22;;
27684;SDS011;46113;50.130;8.526;2024-01-30T08:59:56;7.82;;;4.97;;
27684;SDS011;46113;50.130;8.526;2024-01-30T09:02:23;6.63;;;5.13;;
27684;SDS011;46113;50.130;8.526;2024-01-30T09:04:50;11.85;;;5.80;;
27684;SDS011;46113;50.130;8.526;2024-01-30T09:07:17;7.75;;;4.80;;
27684;SDS011;46113;50.130;8.526;2024-01-30T09:09:44;9.55;;;6.32;;
27684;SDS011;46113;50.130;8.526;2024-01-30T09:12:11;5.80;;;4.32;;
27684;SDS011;46113;50.130;8.526;2024-01-30T09:14:39;9.98;;;5.75;;
27684;SDS011;46113;50.130;8.526;2024-01-30T09:17:07;9.82;;;4.72;;
27684;SDS011;46113;50.130;8.526;2024-01-30T09:19:34;7.03;;;4.90;;
27684;SDS011;46113;50.130;8.526;2024-01-30T09:22:02;10.88;;;5.00;;
27684;SDS011;46113;50.130;8.526;2024-01-30T09:24:29;6.40;;;4.82;;
27684;SDS011;46113;50.130;8.526;2024-01-30T09:26:56;10.43;;;4.78;;
27684;SDS011;46113;50.130;8.526;2024-01-30T09:29:22;4.32;;;3.92;;
27684;SDS011;46113;50.130;8.526;2024-01-30T09:31:49;6.43;;;4.35;;
27684;SDS011;46113;50.130;8.526;2024-01-30T09:34:16;6.43;;;4.63;;
27684;SDS011;46113;50.130;8.526;2024-01-30T09:36:43;5.65;;;4.28;;
27684;SDS011;46113;50.130;8.526;2024-01-30T09:39:10;8.80;;;3.63;;
27684;SDS011;46113;50.130;8.526;2024-01-30T09:41:40;6.03;;;3.83;;
27684;SDS011;46113;50.130;8.526;2024-01-30T09:44:32;5.65;;;3.97;;
27684;SDS011;46113;50.130;8.526;2024-01-30T09:47:02;6.72;;;4.05;;
27684;SDS011;46113;50.130;8.526;2024-01-30T09:49:32;5.30;;;3.70;;
27684;SDS011;46113;50.130;8.526;2024-01-30T09:52:00;5.72;;;4.13;;
27684;SDS011;46113;50.130;8.526;2024-01-30T09:54:30;5.50;;;4.22;;
27684;SDS011;46113;50.130;8.526;2024-01-30T09:57:02;8.33;;;3.97;;
27684;SDS011;46113;50.130;8.526;2024-01-30T09:59:28;4.65;;;3.83;;
27684;SDS011;46113;50.130;8.526;2024-01-30T10:01:55;4.93;;;4.03;;
27684;SDS011;46113;50.130;8.526;2024-01-30T10:04:23;5.57;;;4.45;;
27684;SDS011;46113;50.130;8.526;2024-01-30T10:06:50;9.02;;;4.93;;
27684;SDS011;46113;50.130;8.526;2024-01-30T10:09:17;9.55;;;5.90;;
27684;SDS011;46113;50.130;8.526;2024-01-30T10:11:44;13.75;;;7.30;;
27684;SDS011;46113;50.130;8.526;2024-01-30T10:14:11;14.00;;;6.75;;
27684;SDS011;46113;50.130;8.526;2024-01-30T10:16:37;9.95;;;5.88;;
27684;SDS011;46113;50.130;8.526;2024-01-30T10:19:04;7.55;;;5.43;;
27684;SDS011;46113;50.130;8.526;2024-01-30T10:21:32;8.13;;;5.22;;
27684;SDS011;46113;50.130;8.526;2024-01-30T10:23:59;6.13;;;4.20;;
27684;SDS011;46113;50.130;8.526;2024-01-30T10:26:25;8.52;;;4.68;;
27684;SDS011;46113;50.130;8.526;2024-01-30T10:28:52;9.38;;;5.45;;
27684;SDS011;46113;50.130;8.526;2024-01-30T10:31:19;9.95;;;6.70;;
27684;SDS011;46113;50.130;8.526;2024-01-30T10:33:46;13.43;;;7.43;;
27684;SDS011;46113;50.130;8.526;2024-01-30T10:36:14;14.30;;;7.28;;
27684;SDS011;46113;50.130;8.526;2024-01-30T10:38:46;17.88;;;9.57;;
27684;SDS011;46113;50.130;8.526;2024-01-30T10:41:19;18.38;;;9.80;;
27684;SDS011;46113;50.130;8.526;2024-01-30T10:43:57;16.02;;;8.80;;
27684;SDS011;46113;50.130;8.526;2024-01-30T10:46:30;14.80;;;9.18;;
27684;SDS011;46113;50.130;8.526;2024-01-30T10:48:58;14.65;;;10.07;;
27684;SDS011;46113;50.130;8.526;2024-01-30T10:51:27;19.85;;;10.15;;
27684;SDS011;46113;50.130;8.526;2024-01-30T10:53:55;13.40;;;8.48;;
27684;SDS011;46113;50.130;8.526;2024-01-30T10:56:24;14.13;;;8.07;;
27684;SDS011;46113;50.130;8.526;2024-01-30T10:58:52;13.38;;;8.23;;
27684;SDS011;46113;50.130;8.526;2024-01-30T11:01:20;13.30;;;7.97;;
27684;SDS011;46113;50.130;8.526;2024-01-30T11:03:51;12.15;;;7.85;;
27684;SDS011;46113;50.130;8.526;2024-01-30T11:06:22;16.77;;;7.75;;
27684;SDS011;46113;50.130;8.526;2024-01-30T11:09:03;16.45;;;7.03;;
27684;SDS011;46113;50.130;8.526;2024-01-30T11:11:50;9.55;;;5.53;;
27684;SDS011;46113;50.130;8.526;2024-01-30T11:14:27;13.80;;;7.25;;
27684;SDS011;46113;50.130;8.526;2024-01-30T11:16:59;20.23;;;6.55;;
27684;SDS011;46113;50.130;8.526;2024-01-30T11:19:26;10.35;;;5.43;;
27684;SDS011;46113;50.130;8.526;2024-01-30T11:21:54;11.02;;;5.72;;
27684;SDS011;46113;50.130;8.526;2024-01-30T11:24:23;10.57;;;6.07;;
27684;SDS011;46113;50.130;8.526;2024-01-30T11:26:57;10.90;;;6.43;;
27684;SDS011;46113;50.130;8.526;2024-01-30T11:29:28;11.80;;;6.10;;
27684;SDS011;46113;50.130;8.526;2024-01-30T11:31:55;8.95;;;6.05;;
27684;SDS011;46113;50.130;8.526;2024-01-30T11:34:25;8.40;;;5.97;;
27684;SDS011;46113;50.130;8.526;2024-01-30T11:36:52;7.90;;;4.70;;
27684;SDS011;46113;50.130;8.526;2024-01-30T11:39:35;8.47;;;5.77;;
27684;SDS011;46113;50.130;8.526;2024-01-30T11:42:03;7.38;;;5.07;;
27684;SDS011;46113;50.130;8.526;2024-01-30T11:44:31;18.95;;;6.45;;
27684;SDS011;46113;50.130;8.526;2024-01-30T11:46:58;16.08;;;7.55;;
27684;SDS011;46113;50.130;8.526;2024-01-30T11:49:25;14.23;;;6.82;;
27684;SDS011;46113;50.130;8.526;2024-01-30T11:51:52;9.77;;;5.30;;
27684;SDS011;46113;50.130;8.526;2024-01-30T11:54:20;9.77;;;5.88;;
27684;SDS011;46113;50.130;8.526;2024-01-30T11:56:47;13.25;;;6.30;;
27684;SDS011;46113;50.130;8.526;2024-01-30T11:59:13;19.40;;;7.70;;
27684;SDS011;46113;50.130;8.526;2024-01-30T12:01:40;13.05;;;7.72;;
27684;SDS011;46113;50.130;8.526;2024-01-30T12:04:08;10.50;;;6.90;;
27684;SDS011;46113;50.130;8.526;2024-01-30T12:06:37;11.45;;;7.32;;
27684;SDS011;46113;50.130;8.526;2024-01-30T12:09:05;13.40;;;7.15;;
27684;SDS011;46113;50.130;8.526;2024-01-30T12:11:44;11.98;;;7.40;;
27684;SDS011;46113;50.130;8.526;2024-01-30T12:14:14;12.88;;;7.68;;
27684;SDS011;46113;50.130;8.526;2024-01-30T12:16:42;9.13;;;6.80;;
27684;SDS011;46113;50.130;8.526;2024-01-30T12:19:09;13.77;;;8.43;;
27684;SDS011;46113;50.130;8.526;2024-01-30T12:21:37;15.13;;;7.35;;
27684;SDS011;46113;50.130;8.526;2024-01-30T12:24:04;10.35;;;7.10;;
27684;SDS011;46113;50.130;8.526;2024-01-30T12:26:33;11.57;;;8.05;;
27684;SDS011;46113;50.130;8.526;2024-01-30T12:29:00;17.33;;;7.88;;
27684;SDS011;46113;50.130;8.526;2024-01-30T12:31:31;9.45;;;6.35;;
27684;SDS011;46113;50.130;8.526;2024-01-30T12:33:59;12.63;;;6.85;;
27684;SDS011;46113;50.130;8.526;2024-01-30T12:36:28;7.70;;;5.72;;
27684;SDS011;46113;50.130;8.526;2024-01-30T12:38:57;8.52;;;6.20;;
27684;SDS011;46113;50.130;8.526;2024-01-30T12:41:25;11.85;;;6.47;;
27684;SDS011;46113;50.130;8.526;2024-01-30T12:43:56;11.48;;;6.82;;
27684;SDS011;46113;50.130;8.526;2024-01-30T12:46:28;9.93;;;5.90;;
27684;SDS011;46113;50.130;8.526;2024-01-30T12:48:55;9.85;;;6.00;;
27684;SDS011;46113;50.130;8.526;2024-01-30T12:51:23;11.80;;;6.40;;
27684;SDS011;46113;50.130;8.526;2024-01-30T12:53:50;8.57;;;5.47;;
27684;SDS011;46113;50.130;8.526;2024-01-30T12:56:17;10.13;;;5.63;;
27684;SDS011;46113;50.130;8.526;2024-01-30T12:58:44;8.27;;;5.65;;
27684;SDS011;46113;50.130;8.526;2024-01-30T13:01:15;10.02;;;5.95;;
27684;SDS011;46113;50.130;8.526;2024-01-30T13:03:42;9.10;;;5.18;;
27684;SDS011;46113;50.130;8.526;2024-01-30T13:06:09;8.10;;;5.55;;
27684;SDS011;46113;50.130;8.526;2024-01-30T13:08:36;9.52;;;5.95;;
27684;SDS011;46113;50.130;8.526;2024-01-30T13:11:03;8.27;;;5.95;;
27684;SDS011;46113;50.130;8.526;2024-01-30T13:13:30;8.55;;;5.60;;
27684;SDS011;46113;50.130;8.526;2024-01-30T13:15:57;14.18;;;7.82;;
27684;SDS011;46113;50.130;8.526;2024-01-30T13:18:24;14.02;;;6.15;;
27684;SDS011;46113;50.130;8.526;2024-01-30T13:20:51;11.48;;;6.15;;
27684;SDS011;46113;50.130;8.526;2024-01-30T13:23:18;10.38;;;6.18;;
27684;SDS011;46113;50.130;8.526;2024-01-30T13:25:45;10.30;;;5.70;;
27684;SDS011;46113;50.130;8.526;2024-01-30T13:28:12;13.50;;;7.78;;
27684;SDS011;46113;50.130;8.526;2024-01-30T13:30:39;18.85;;;9.15;;
27684;SDS011;46113;50.130;8.526;2024-01-30T13:33:06;32.17;;;14.88;;
27684;SDS011;46113;50.130;8.526;2024-01-30T13:35:32;17.30;;;8.13;;
27684;SDS011;46113;50.130;8.526;2024-01-30T13:37:59;18.80;;;8.20;;
27684;SDS011;46113;50.130;8.526;2024-01-30T13:40:26;15.32;;;8.02;;
27684;SDS011;46113;50.130;8.526;2024-01-30T13:42:53;22.42;;;10.40;;
27684;SDS011;46113;50.130;8.526;2024-01-30T13:45:20;60.30;;;23.85;;
27684;SDS011;46113;50.130;8.526;2024-01-30T13:47:49;90.43;;;38.13;;
27684;SDS011;46113;50.130;8.526;2024-01-30T13:50:16;42.30;;;16.42;;
27684;SDS011;46113;50.130;8.526;2024-01-30T13:52:43;58.42;;;24.65;;
27684;SDS011;46113;50.130;8.526;2024-01-30T13:55:11;22.20;;;10.45;;
27684;SDS011;46113;50.130;8.526;2024-01-30T13:57:38;20.02;;;9.38;;
27684;SDS011;46113;50.130;8.526;2024-01-30T14:00:05;12.13;;;6.57;;
27684;SDS011;46113;50.130;8.526;2024-01-30T14:02:38;9.57;;;4.85;;
27684;SDS011;46113;50.130;8.526;2024-01-30T14:05:05;10.18;;;5.32;;
27684;SDS011;46113;50.130;8.526;2024-01-30T14:07:32;8.40;;;4.93;;
27684;SDS011;46113;50.130;8.526;2024-01-30T14:09:59;9.15;;;5.13;;
27684;SDS011;46113;50.130;8.526;2024-01-30T14:12:26;11.45;;;6.07;;
27684;SDS011;46113;50.130;8.526;2024-01-30T14:14:53;9.25;;;6.20;;
27684;SDS011;46113;50.130;8.526;2024-01-30T14:17:20;15.43;;;8.82;;
27684;SDS011;46113;50.130;8.526;2024-01-30T14:19:46;23.65;;;10.45;;
27684;SDS011;46113;50.130;8.526;2024-01-30T14:22:13;10.48;;;6.28;;
27684;SDS011;46113;50.130;8.526;2024-01-30T14:24:40;9.75;;;5.40;;
27684;SDS011;46113;50.130;8.526;2024-01-30T14:27:07;10.43;;;5.80;;
27684;SDS011;46113;50.130;8.526;2024-01-30T14:29:34;8.68;;;5.70;;
27684;SDS011;46113;50.130;8.526;2024-01-30T14:32:01;10.48;;;5.15;;
27684;SDS011;46113;50.130;8.526;2024-01-30T14:34:30;11.07;;;5.47;;
27684;SDS011;46113;50.130;8.526;2024-01-30T14:36:57;12.98;;;5.57;;
27684;SDS011;46113;50.130;8.526;2024-01-30T14:39:24;8.95;;;5.13;;
27684;SDS011;46113;50.130;8.526;2024-01-30T14:41:51;11.88;;;7.20;;
27684;SDS011;46113;50.130;8.526;2024-01-30T14:44:18;7.57;;;4.95;;
27684;SDS011;46113;50.130;8.526;2024-01-30T14:46:44;11.10;;;5.32;;